KTWF/TWF METAR and TAF weather

Enter ICAO airport designator
Station Type Date Time Source
KTWF METAR 2019/12/11 11:53 UTC NOAA

KTWF 111153Z AUTO 15005KT 10SM BKN110 M03/M04 A3012 RMK AO2 SLP201 6//// 7//// T10281044 10006 21050 58004 $


Station Type Date Time Source
KTWF Decoded METAR 2019/12/11 11:53 UTC NOAA

JOSLIN FLD-MAGIC VALLEY REGL, ID, United States (KTWF) 42-29N 114-29W 1266M
Dec 11, 2019 - 06:53 AM EST / 2019.12.11 1153 UTC
Wind: from the SSE (150 degrees) at 6 MPH (5 KT):0
Visibility: 10 mile(s):0
Sky conditions: mostly cloudy
Temperature: 27.0 F (-2.8 C)
Windchill: 19 F (-7 C):1
Dew Point: 24.1 F (-4.4 C)
Relative Humidity: 88%
Pressure (altimeter): 30.12 in. Hg (1019 hPa)
Pressure tendency: 0.01 inches (0.4 hPa) lower than three hours ago
ob: KTWF 111153Z AUTO 15005KT 10SM BKN110 M03/M04 A3012 RMK AO2 SLP201 6//// 7//// T10281044 10006 21050 58004
cycle: 12

Station Type Date Time Source
KTWF TAF 2019/12/11 12:22 UTC NOAA

TAF KTWF 111120Z 1112/1212 VRB06KT 6SM -SHSN OVC025
FM111900 25010KT P6SM SCT025 OVC040
FM120100 19008KT P6SM OVC040
FM120900 20010KT 6SM -SHRA BR OVC025

Example: see airport list